createdAt,value
2019-01-12T00:01:28.751Z,7.50
2019-01-12T00:03:30.514Z,8.08
2019-01-12T00:05:32.424Z,6.58
2019-01-12T00:07:34.288Z,6.72
2019-01-12T00:09:36.010Z,7.65
2019-01-12T00:11:37.891Z,7.00
2019-01-12T00:13:40.139Z,6.50
2019-01-12T00:15:42.003Z,7.03
2019-01-12T00:17:43.743Z,7.47
2019-01-12T00:19:45.451Z,8.15
2019-01-12T00:21:47.287Z,8.05
2019-01-12T00:23:49.025Z,7.53
2019-01-12T00:25:50.799Z,6.83
2019-01-12T00:27:52.525Z,8.25
2019-01-12T00:29:54.271Z,7.67
2019-01-12T00:31:56.060Z,7.47
2019-01-12T00:33:57.882Z,7.85
2019-01-12T00:35:59.604Z,7.83
2019-01-12T00:38:02.210Z,7.05
2019-01-12T00:40:05.073Z,7.47
2019-01-12T00:42:07.134Z,7.85
2019-01-12T00:44:08.882Z,6.95
2019-01-12T00:46:10.656Z,7.65
2019-01-12T00:48:12.364Z,8.23
2019-01-12T00:50:15.290Z,7.53
2019-01-12T00:52:17.018Z,7.85
2019-01-12T00:54:18.750Z,8.48
2019-01-12T00:56:20.490Z,7.90
2019-01-12T00:58:22.232Z,9.80
2019-01-12T01:00:24.250Z,8.30
2019-01-12T01:02:25.999Z,8.90
2019-01-12T01:04:27.827Z,6.55
2019-01-12T01:06:29.838Z,8.83
2019-01-12T01:08:31.575Z,8.23
2019-01-12T01:10:33.487Z,6.85
2019-01-12T01:12:35.254Z,8.35
2019-01-12T01:14:37.082Z,7.45
2019-01-12T01:16:38.792Z,8.08
2019-01-12T01:18:40.522Z,7.87
2019-01-12T01:20:42.338Z,6.75
2019-01-12T01:22:44.577Z,7.65
2019-01-12T01:24:46.616Z,5.40
2019-01-12T01:26:48.478Z,7.90
2019-01-12T01:28:50.642Z,7.17
2019-01-12T01:30:52.378Z,6.53
2019-01-12T01:32:54.264Z,7.25
2019-01-12T01:34:55.976Z,7.33
2019-01-12T01:36:57.689Z,7.20
2019-01-12T01:38:59.462Z,6.60
2019-01-12T01:41:01.211Z,8.65
2019-01-12T01:43:03.030Z,6.50
2019-01-12T01:45:05.810Z,6.42
2019-01-12T01:47:07.548Z,8.93
2019-01-12T01:49:09.294Z,8.35
2019-01-12T01:51:11.030Z,6.78
2019-01-12T01:53:12.854Z,6.55
2019-01-12T01:55:14.598Z,6.40
2019-01-12T01:57:16.438Z,8.18
2019-01-12T01:59:18.270Z,6.55
2019-01-12T02:01:20.000Z,5.90
2019-01-12T02:03:22.021Z,5.10
2019-01-12T02:05:23.798Z,6.87
2019-01-12T02:07:25.714Z,6.60
2019-01-12T02:09:27.474Z,6.55
2019-01-12T02:11:29.195Z,7.20
2019-01-12T02:13:31.038Z,6.85
2019-01-12T02:15:32.915Z,6.42
2019-01-12T02:17:34.738Z,6.20
2019-01-12T02:19:36.491Z,5.92
2019-01-12T02:21:38.239Z,5.65
2019-01-12T02:23:40.083Z,6.20
2019-01-12T02:25:41.946Z,6.87
2019-01-12T02:27:43.664Z,5.67
2019-01-12T02:29:45.456Z,6.20
2019-01-12T02:31:47.171Z,6.08
2019-01-12T02:33:48.926Z,6.53
2019-01-12T02:35:51.262Z,7.25
2019-01-12T02:37:52.978Z,6.97
2019-01-12T02:39:54.722Z,6.22
2019-01-12T02:41:56.570Z,6.33
2019-01-12T02:43:58.315Z,6.62
2019-01-12T02:46:00.121Z,6.12
2019-01-12T02:48:02.399Z,5.37
2019-01-12T02:50:05.031Z,5.33
2019-01-12T02:52:06.870Z,5.35
2019-01-12T02:54:08.631Z,6.10
2019-01-12T02:56:10.342Z,5.53
2019-01-12T02:58:12.107Z,6.03
2019-01-12T03:00:16.388Z,5.20
2019-01-12T03:02:18.204Z,6.75
2019-01-12T03:04:19.952Z,6.20
2019-01-12T03:06:21.916Z,5.33
2019-01-12T03:08:23.835Z,5.62
2019-01-12T03:10:25.652Z,7.10
2019-01-12T03:12:27.802Z,8.68
2019-01-12T03:14:29.686Z,7.30
2019-01-12T03:16:31.553Z,5.78
2019-01-12T03:18:33.409Z,5.60
2019-01-12T03:20:35.415Z,5.97
2019-01-12T03:22:37.242Z,5.78
2019-01-12T03:24:39.138Z,5.42
2019-01-12T03:26:40.970Z,5.90
2019-01-12T03:28:42.703Z,7.10
2019-01-12T03:30:44.440Z,6.03
2019-01-12T03:32:49.144Z,6.00
2019-01-12T03:34:50.975Z,6.30
2019-01-12T03:36:52.803Z,7.20
2019-01-12T03:38:54.523Z,6.33
2019-01-12T03:40:56.442Z,5.92
2019-01-12T03:42:58.162Z,6.53
2019-01-12T03:44:59.896Z,6.62
2019-01-12T03:47:01.717Z,5.85
2019-01-12T03:49:03.563Z,5.45
2019-01-12T03:51:05.311Z,5.50
2019-01-12T03:53:07.133Z,4.62
2019-01-12T03:55:09.157Z,5.37
2019-01-12T03:57:11.010Z,5.05
2019-01-12T03:59:12.727Z,3.92
2019-01-12T04:01:14.571Z,4.78
2019-01-12T04:03:16.303Z,4.50
2019-01-12T04:05:18.130Z,4.58
2019-01-12T04:07:20.030Z,3.87
2019-01-12T04:09:21.764Z,4.25
2019-01-12T04:11:23.511Z,4.20
2019-01-12T04:13:25.242Z,3.80
2019-01-12T04:15:27.454Z,6.50
2019-01-12T04:17:29.290Z,3.80
2019-01-12T04:19:31.015Z,3.62
2019-01-12T04:21:32.766Z,3.60
2019-01-12T04:23:34.520Z,4.12
2019-01-12T04:25:36.342Z,4.15
2019-01-12T04:27:38.566Z,3.58
2019-01-12T04:29:40.287Z,3.45
2019-01-12T04:31:42.011Z,3.80
2019-01-12T04:33:43.758Z,4.60
2019-01-12T04:35:45.481Z,4.00
2019-01-12T04:37:47.443Z,4.35
2019-01-12T04:39:49.230Z,4.25
2019-01-12T04:41:51.751Z,4.00
2019-01-12T04:43:53.538Z,4.90
2019-01-12T04:48:05.560Z,3.70
2019-01-12T04:50:09.898Z,3.00
2019-01-12T04:52:11.623Z,3.42
2019-01-12T04:54:13.374Z,3.12
2019-01-12T04:56:15.210Z,3.02
2019-01-12T04:58:16.948Z,2.50
2019-01-12T05:00:19.160Z,3.00
2019-01-12T05:02:20.876Z,3.10
2019-01-12T05:04:22.615Z,3.55
2019-01-12T05:06:24.353Z,3.80
2019-01-12T05:08:26.082Z,3.90
2019-01-12T05:10:28.001Z,4.65
2019-01-12T05:12:29.744Z,4.67
2019-01-12T05:14:31.459Z,4.72
2019-01-12T05:16:33.185Z,4.10
2019-01-12T05:18:34.919Z,4.28
2019-01-12T05:20:36.633Z,4.50
2019-01-12T05:22:38.343Z,4.03
2019-01-12T05:24:40.077Z,4.25
2019-01-12T05:26:41.992Z,4.40
2019-01-12T05:28:43.722Z,4.45
2019-01-12T05:30:45.464Z,4.80
2019-01-12T05:32:47.182Z,4.67
2019-01-12T05:34:49.046Z,4.80
2019-01-12T05:36:50.787Z,5.00
2019-01-12T05:38:52.543Z,4.10
2019-01-12T05:40:54.272Z,4.20
2019-01-12T05:42:56.160Z,3.80
2019-01-12T05:44:57.890Z,4.28
2019-01-12T05:46:59.606Z,3.55
2019-01-12T05:49:01.362Z,4.20
2019-01-12T05:51:03.188Z,3.83
2019-01-12T05:53:04.906Z,4.10
2019-01-12T05:55:07.130Z,4.10
2019-01-12T05:57:08.858Z,3.70
2019-01-12T05:59:10.610Z,3.33
2019-01-12T06:01:12.597Z,3.30
2019-01-12T06:03:14.407Z,3.27
2019-01-12T06:05:16.226Z,3.02
2019-01-12T06:07:17.967Z,3.70
2019-01-12T06:09:19.696Z,3.37
2019-01-12T06:11:21.422Z,3.42
2019-01-12T06:13:23.174Z,3.30
2019-01-12T06:15:25.288Z,3.67
2019-01-12T06:17:27.010Z,4.45
2019-01-12T06:19:28.757Z,3.70
2019-01-12T06:21:30.811Z,3.02
2019-01-12T06:23:32.533Z,3.17
2019-01-12T06:25:34.264Z,3.80
2019-01-12T06:27:35.990Z,3.30
2019-01-12T06:29:37.723Z,3.33
2019-01-12T06:31:39.466Z,3.20
2019-01-12T06:33:41.190Z,3.40
2019-01-12T06:35:42.913Z,3.42
2019-01-12T06:37:44.847Z,3.58
2019-01-12T06:39:47.986Z,3.62
2019-01-12T06:41:49.718Z,3.80
2019-01-12T06:43:51.505Z,3.25
2019-01-12T06:45:53.217Z,3.60
2019-01-12T06:47:54.935Z,4.62
2019-01-12T06:49:56.703Z,4.03
2019-01-12T06:51:58.694Z,4.00
2019-01-12T06:54:00.430Z,4.58
2019-01-12T06:56:02.374Z,3.92
2019-01-12T06:58:04.193Z,4.03
2019-01-12T07:00:09.536Z,4.45
2019-01-12T07:02:11.480Z,4.58
2019-01-12T07:04:13.310Z,3.55
2019-01-12T07:06:15.142Z,4.25
2019-01-12T07:08:16.863Z,4.80
2019-01-12T07:10:18.700Z,3.87
2019-01-12T07:12:20.444Z,3.60
2019-01-12T07:14:22.230Z,3.75
2019-01-12T07:16:23.955Z,3.33
2019-01-12T07:18:26.074Z,3.37
2019-01-12T07:20:27.895Z,3.20
2019-01-12T07:22:29.754Z,3.67
2019-01-12T07:24:31.824Z,4.45
2019-01-12T07:26:33.567Z,3.50
2019-01-12T07:28:35.282Z,4.08
2019-01-12T07:30:37.007Z,3.77
2019-01-12T07:32:38.767Z,3.95
2019-01-12T07:34:40.522Z,3.87
2019-01-12T07:36:42.250Z,4.08
2019-01-12T07:38:44.242Z,3.90
2019-01-12T07:40:45.973Z,4.22
2019-01-12T07:42:48.039Z,3.70
2019-01-12T07:44:49.796Z,4.35
2019-01-12T07:46:51.519Z,3.65
2019-01-12T07:48:53.311Z,4.58
2019-01-12T07:50:55.287Z,3.65
2019-01-12T07:52:57.011Z,3.25
2019-01-12T07:54:58.730Z,3.37
2019-01-12T07:57:00.608Z,3.12
2019-01-12T07:59:02.431Z,3.02
2019-01-12T08:01:04.261Z,3.40
2019-01-12T08:03:06.320Z,3.70
2019-01-12T08:05:08.247Z,4.10
2019-01-12T08:07:09.962Z,3.00
2019-01-12T08:09:11.783Z,3.62
2019-01-12T08:11:13.506Z,3.70
2019-01-12T08:13:15.327Z,3.55
2019-01-12T08:15:17.393Z,4.12
2019-01-12T08:17:21.689Z,3.92
2019-01-12T08:19:23.622Z,4.45
2019-01-12T08:21:25.463Z,4.37
2019-01-12T08:23:27.418Z,4.03
2019-01-12T08:25:29.126Z,3.80
2019-01-12T08:27:31.464Z,4.50
2019-01-12T08:29:33.186Z,5.95
2019-01-12T08:31:34.906Z,3.85
2019-01-12T08:33:42.514Z,4.55
2019-01-12T08:35:47.120Z,4.55
2019-01-12T08:37:48.944Z,4.33
2019-01-12T08:39:50.674Z,4.05
2019-01-12T08:41:58.342Z,4.30
2019-01-12T08:44:00.070Z,4.55
2019-01-12T08:46:03.010Z,3.80
2019-01-12T08:48:05.112Z,4.47
2019-01-12T08:50:10.560Z,3.72
2019-01-12T08:52:12.306Z,4.95
2019-01-12T08:54:17.250Z,4.75
2019-01-12T08:56:18.972Z,4.55
2019-01-12T08:58:20.694Z,3.60
2019-01-12T09:00:22.662Z,3.10
2019-01-12T09:02:24.418Z,3.90
2019-01-12T09:04:26.506Z,3.12
2019-01-12T09:06:28.434Z,3.72
2019-01-12T09:08:30.187Z,4.45
2019-01-12T09:10:32.031Z,4.60
2019-01-12T09:12:33.864Z,3.75
2019-01-12T09:14:35.674Z,5.03
2019-01-12T09:16:37.394Z,5.37
2019-01-12T09:18:39.220Z,4.30
2019-01-12T09:20:41.058Z,6.28
2019-01-12T09:22:45.482Z,5.40
2019-01-12T09:24:47.311Z,4.62
2019-01-12T09:26:49.126Z,5.17
2019-01-12T09:28:50.855Z,5.75
2019-01-12T09:30:52.571Z,4.92
2019-01-12T09:32:54.456Z,4.90
2019-01-12T09:34:56.283Z,5.28
2019-01-12T09:36:58.449Z,4.83
2019-01-12T09:39:00.266Z,4.87
2019-01-12T09:41:02.010Z,5.55
2019-01-12T09:43:03.940Z,4.60
2019-01-12T09:45:07.099Z,4.90
2019-01-12T09:47:08.814Z,4.62
2019-01-12T09:49:10.543Z,5.10
2019-01-12T09:51:12.264Z,5.72
2019-01-12T09:53:14.332Z,4.90
2019-01-12T09:55:16.362Z,4.85
2019-01-12T09:57:18.097Z,5.00
2019-01-12T09:59:19.803Z,5.42
2019-01-12T10:01:21.873Z,5.37
2019-01-12T10:03:23.642Z,5.33
2019-01-12T10:05:25.420Z,5.22
2019-01-12T10:07:27.538Z,4.55
2019-01-12T10:09:29.267Z,5.15
2019-01-12T10:11:31.111Z,5.10
2019-01-12T10:13:32.835Z,5.78
2019-01-12T10:15:34.588Z,6.30
2019-01-12T10:17:36.434Z,6.83
2019-01-12T10:19:38.610Z,4.90
2019-01-12T10:21:40.310Z,6.58
2019-01-12T10:23:42.028Z,5.87
2019-01-12T10:25:43.862Z,5.78
2019-01-12T10:27:45.797Z,6.53
2019-01-12T10:29:47.526Z,6.62
2019-01-12T10:31:49.287Z,6.00
2019-01-12T10:33:51.042Z,5.60
2019-01-12T10:35:52.890Z,7.65
2019-01-12T10:37:54.699Z,7.42
2019-01-12T10:39:56.525Z,6.85
2019-01-12T10:41:58.251Z,7.25
2019-01-12T10:43:59.962Z,9.05
2019-01-12T10:46:01.919Z,7.87
2019-01-12T10:48:03.941Z,8.20
2019-01-12T10:50:09.719Z,9.38
2019-01-12T10:52:11.536Z,8.48
2019-01-12T10:54:13.264Z,8.50
2019-01-12T10:56:15.086Z,8.73
2019-01-12T10:58:16.901Z,7.45
2019-01-12T11:00:21.776Z,6.90
2019-01-12T11:02:23.678Z,7.90
2019-01-12T11:04:25.430Z,7.35
2019-01-12T11:06:27.238Z,7.70
2019-01-12T11:08:29.057Z,8.23
2019-01-12T11:10:30.875Z,7.87
2019-01-12T11:12:32.794Z,8.03
2019-01-12T11:14:34.797Z,7.55
2019-01-12T11:16:36.624Z,7.53
2019-01-12T11:18:38.482Z,7.33
2019-01-12T11:20:40.402Z,7.90
2019-01-12T11:22:42.330Z,7.40
2019-01-12T11:24:44.092Z,8.55
2019-01-12T11:26:45.849Z,7.17
2019-01-12T11:28:47.688Z,8.30
2019-01-12T11:30:49.746Z,7.60
2019-01-12T11:32:51.710Z,8.28
2019-01-12T11:34:53.514Z,8.23
2019-01-12T11:36:55.615Z,8.60
2019-01-12T11:38:57.394Z,8.70
2019-01-12T11:40:59.122Z,9.45
2019-01-12T11:43:01.286Z,9.33
2019-01-12T11:45:04.242Z,10.35
2019-01-12T11:47:08.660Z,9.78
2019-01-12T11:49:10.503Z,9.70
2019-01-12T11:51:12.993Z,10.68
2019-01-12T11:53:14.946Z,10.28
2019-01-12T11:55:17.696Z,7.95
2019-01-12T11:57:19.454Z,10.82
2019-01-12T11:59:21.348Z,9.83
2019-01-12T12:01:23.087Z,9.95
2019-01-12T12:03:25.150Z,10.18
2019-01-12T12:05:27.362Z,9.13
2019-01-12T12:07:29.070Z,10.13
2019-01-12T12:09:30.826Z,9.68
2019-01-12T12:11:32.667Z,11.50
2019-01-12T12:13:34.585Z,10.70
2019-01-12T12:15:36.430Z,10.08
2019-01-12T12:17:38.388Z,9.18
2019-01-12T12:19:40.315Z,10.40
2019-01-12T12:21:42.395Z,9.65
2019-01-12T12:23:44.215Z,9.63
2019-01-12T12:25:45.934Z,11.28
2019-01-12T12:27:47.874Z,8.50
2019-01-12T12:29:49.602Z,9.75
2019-01-12T12:31:51.580Z,8.78
2019-01-12T12:33:53.301Z,10.40
2019-01-12T12:35:55.180Z,9.53
2019-01-12T12:37:57.063Z,10.00
2019-01-12T12:39:58.885Z,10.98
2019-01-12T12:42:00.642Z,9.38
2019-01-12T12:44:02.480Z,8.33
2019-01-12T12:46:04.495Z,9.10
2019-01-12T12:48:07.260Z,8.20
2019-01-12T12:50:13.266Z,9.03
2019-01-12T12:52:15.315Z,8.93
2019-01-12T12:54:17.260Z,8.70
2019-01-12T12:56:19.176Z,8.18
2019-01-12T12:58:20.911Z,6.85
2019-01-12T13:00:25.098Z,8.70
2019-01-12T13:02:27.070Z,7.30
2019-01-12T13:04:28.891Z,6.83
2019-01-12T13:06:30.826Z,7.75
2019-01-12T13:08:32.758Z,6.35
2019-01-12T13:10:34.682Z,6.40
2019-01-12T13:12:36.614Z,7.65
2019-01-12T13:14:38.468Z,7.05
2019-01-12T13:16:40.230Z,6.35
2019-01-12T13:18:42.142Z,7.30
2019-01-12T13:20:44.050Z,6.67
2019-01-12T13:22:46.010Z,6.03
2019-01-12T13:24:47.958Z,6.72
2019-01-12T13:26:49.722Z,6.75
2019-01-12T13:28:51.430Z,7.10
2019-01-12T13:30:53.153Z,5.47
2019-01-12T13:32:55.091Z,6.78
2019-01-12T13:34:56.815Z,5.62
2019-01-12T13:36:58.530Z,5.50
2019-01-12T13:39:00.390Z,5.75
2019-01-12T13:41:02.217Z,5.00
2019-01-12T13:43:04.098Z,4.92
2019-01-12T13:45:07.689Z,5.67
2019-01-12T13:47:09.811Z,5.40
2019-01-12T13:49:11.554Z,5.28
2019-01-12T13:51:13.549Z,5.20
2019-01-12T13:53:15.545Z,5.00
2019-01-12T13:55:17.714Z,5.20
2019-01-12T13:57:19.618Z,5.20
2019-01-12T13:59:21.583Z,4.60
2019-01-12T14:01:23.414Z,4.05
2019-01-12T14:03:25.250Z,3.98
2019-01-12T14:05:27.190Z,4.40
2019-01-12T14:07:29.134Z,3.85
2019-01-12T14:09:30.973Z,4.10
2019-01-12T14:11:32.711Z,4.10
2019-01-12T14:13:34.451Z,4.20
2019-01-12T14:15:36.675Z,4.22
2019-01-12T14:17:38.703Z,4.03
2019-01-12T14:19:40.432Z,4.30
2019-01-12T14:21:42.167Z,4.97
2019-01-12T14:23:43.889Z,5.10
2019-01-12T14:25:45.650Z,5.30
2019-01-12T14:27:54.239Z,4.17
2019-01-12T14:29:51.262Z,4.87
2019-01-12T14:31:53.219Z,5.05
2019-01-12T14:33:57.146Z,4.78
2019-01-12T14:35:58.890Z,4.67
2019-01-12T14:38:00.627Z,5.95
2019-01-12T14:40:03.354Z,5.05
2019-01-12T14:42:05.375Z,5.55
2019-01-12T14:44:07.443Z,6.15
2019-01-12T14:46:10.435Z,6.20
2019-01-12T14:48:12.293Z,7.50
2019-01-12T14:50:14.820Z,6.45
2019-01-12T14:52:16.656Z,5.55
2019-01-12T14:54:18.843Z,5.83
2019-01-12T14:56:20.842Z,6.62
2019-01-12T14:58:22.585Z,7.60
2019-01-12T15:00:26.614Z,6.70
2019-01-12T15:02:28.320Z,7.08
2019-01-12T15:04:30.244Z,8.78
2019-01-12T15:06:31.999Z,7.05
2019-01-12T15:08:33.744Z,7.10
2019-01-12T15:10:35.491Z,9.68
2019-01-12T15:12:37.563Z,6.97
2019-01-12T15:14:39.290Z,6.25
2019-01-12T15:16:41.032Z,6.25
2019-01-12T15:18:42.918Z,6.67
2019-01-12T15:20:45.790Z,6.45
2019-01-12T15:22:47.795Z,5.87
2019-01-12T15:24:49.923Z,4.90
2019-01-12T15:26:52.306Z,3.52
2019-01-12T15:28:54.154Z,5.65
2019-01-12T15:30:55.910Z,3.47
2019-01-12T15:32:59.618Z,2.90
2019-01-12T15:35:01.572Z,3.87
2019-01-12T15:37:03.456Z,4.30
2019-01-12T15:39:06.414Z,3.67
2019-01-12T15:41:08.139Z,4.30
2019-01-12T15:43:10.294Z,4.62
2019-01-12T15:45:14.684Z,4.80
2019-01-12T15:47:16.575Z,4.42
2019-01-12T15:49:18.313Z,4.97
2019-01-12T15:51:20.250Z,6.00
2019-01-12T15:53:22.358Z,5.12
2019-01-12T15:55:24.316Z,5.47
2019-01-12T15:57:28.966Z,4.62
2019-01-12T15:59:30.828Z,5.60
2019-01-12T16:01:32.794Z,5.05
2019-01-12T16:03:48.150Z,6.55
2019-01-12T16:05:49.894Z,6.03
2019-01-12T16:07:51.625Z,5.85
2019-01-12T16:09:53.567Z,5.15
2019-01-12T16:11:55.290Z,5.12
2019-01-12T16:13:57.008Z,4.58
2019-01-12T16:15:58.795Z,4.87
2019-01-12T16:18:00.510Z,4.35
2019-01-12T16:20:02.874Z,4.85
2019-01-12T16:22:06.583Z,5.40
2019-01-12T16:24:08.383Z,5.10
2019-01-12T16:26:10.138Z,4.78
2019-01-12T16:28:11.982Z,6.05
2019-01-12T16:30:17.386Z,5.40
2019-01-12T16:32:19.503Z,5.10
2019-01-12T16:34:21.471Z,5.58
2019-01-12T16:36:23.193Z,4.30
2019-01-12T16:38:24.922Z,4.60
2019-01-12T16:40:27.051Z,4.87
2019-01-12T16:42:28.819Z,4.00
2019-01-12T16:44:30.668Z,4.55
2019-01-12T16:46:32.453Z,5.50
2019-01-12T16:48:34.306Z,10.08
2019-01-12T16:50:36.118Z,6.97
2019-01-12T16:52:38.014Z,4.80
2019-01-12T16:54:39.858Z,4.95
2019-01-12T16:56:44.195Z,4.47
2019-01-12T16:58:47.911Z,7.50
2019-01-12T17:00:49.658Z,4.97
2019-01-12T17:02:51.681Z,4.58
2019-01-12T17:04:55.509Z,4.58
2019-01-12T17:06:57.239Z,5.08
2019-01-12T17:08:59.007Z,4.45
2019-01-12T17:11:00.870Z,4.65
2019-01-12T17:13:02.921Z,4.65
2019-01-12T17:15:06.712Z,5.05
2019-01-12T17:17:08.727Z,5.12
2019-01-12T17:19:10.646Z,5.60
2019-01-12T17:21:12.516Z,4.85
2019-01-12T17:23:14.346Z,5.50
2019-01-12T17:25:16.239Z,4.95
2019-01-12T17:27:17.956Z,4.87
2019-01-12T17:29:19.683Z,4.20
2019-01-12T17:31:21.715Z,3.70
2019-01-12T17:33:23.550Z,3.72
2019-01-12T17:35:25.727Z,2.83
2019-01-12T17:37:27.470Z,3.80
2019-01-12T17:39:31.154Z,3.30
2019-01-12T17:41:32.879Z,3.35
2019-01-12T17:43:57.509Z,4.08
2019-01-12T17:45:59.508Z,4.75
2019-01-12T17:48:01.240Z,4.55
2019-01-12T17:50:05.016Z,5.90
2019-01-12T17:52:06.742Z,5.80
2019-01-12T17:54:08.463Z,5.30
2019-01-12T17:56:10.335Z,5.20
2019-01-12T17:58:12.044Z,7.47
2019-01-12T18:00:19.187Z,6.45
2019-01-12T18:02:20.911Z,7.45
2019-01-12T18:04:22.631Z,8.60
2019-01-12T18:06:24.693Z,11.48
2019-01-12T18:08:26.516Z,14.20
2019-01-12T18:10:28.231Z,18.87
2019-01-12T18:12:29.967Z,19.32
2019-01-12T18:14:31.686Z,20.40
2019-01-12T18:16:33.742Z,15.35
2019-01-12T18:18:35.675Z,14.18
2019-01-12T18:20:37.591Z,13.72
2019-01-12T18:22:39.630Z,20.00
2019-01-12T18:24:41.358Z,20.25
2019-01-12T18:26:43.076Z,20.02
2019-01-12T18:28:51.479Z,18.10
2019-01-12T18:30:49.771Z,14.20
2019-01-12T18:32:51.743Z,13.32
2019-01-12T18:34:53.478Z,11.65
2019-01-12T18:36:55.195Z,12.45
2019-01-12T18:38:56.951Z,15.48
2019-01-12T18:40:58.673Z,14.68
2019-01-12T18:43:00.509Z,23.45
2019-01-12T18:45:02.758Z,16.70
2019-01-12T18:47:04.468Z,15.43
2019-01-12T18:49:06.219Z,12.28
2019-01-12T18:51:08.163Z,12.58
2019-01-12T18:53:09.997Z,11.80
2019-01-12T18:55:12.070Z,8.75
2019-01-12T18:57:13.855Z,7.75
2019-01-12T18:59:15.565Z,7.70
2019-01-12T19:01:17.295Z,6.87
2019-01-12T19:03:19.027Z,6.72
2019-01-12T19:05:21.149Z,6.80
2019-01-12T19:07:23.674Z,8.00
2019-01-12T19:09:25.408Z,7.03
2019-01-12T19:11:27.144Z,8.10
2019-01-12T19:13:28.860Z,9.28
2019-01-12T19:15:31.294Z,9.13
2019-01-12T19:17:33.003Z,10.32
2019-01-12T19:19:34.739Z,11.45
2019-01-12T19:21:36.807Z,10.03
2019-01-12T19:23:38.515Z,6.70
2019-01-12T19:25:40.251Z,8.55
2019-01-12T19:27:42.086Z,9.63
2019-01-12T19:29:43.816Z,7.78
2019-01-12T19:31:45.556Z,8.75
2019-01-12T19:33:47.372Z,7.05
2019-01-12T19:35:49.075Z,8.53
2019-01-12T19:37:50.789Z,9.30
2019-01-12T19:39:52.521Z,8.23
2019-01-12T19:41:54.331Z,5.67
2019-01-12T19:43:56.288Z,8.73
2019-01-12T19:45:58.014Z,5.08
2019-01-12T19:48:01.633Z,5.12
2019-01-12T19:50:04.866Z,6.17
2019-01-12T19:52:06.578Z,6.50
2019-01-12T19:54:08.427Z,5.35
2019-01-12T19:56:10.269Z,5.80
2019-01-12T19:58:11.979Z,5.85
2019-01-12T20:00:15.775Z,6.17
2019-01-12T20:02:17.745Z,6.03
2019-01-12T20:04:19.565Z,6.00
2019-01-12T20:06:21.307Z,7.35
2019-01-12T20:08:23.015Z,5.42
2019-01-12T20:10:25.358Z,6.00
2019-01-12T20:12:27.559Z,6.33
2019-01-12T20:14:29.274Z,5.55
2019-01-12T20:16:31.086Z,5.80
2019-01-12T20:18:33.027Z,6.75
2019-01-12T20:20:34.774Z,5.00
2019-01-12T20:22:36.594Z,5.90
2019-01-12T20:24:38.358Z,6.17
2019-01-12T20:26:40.575Z,7.25
2019-01-12T20:28:42.311Z,5.42
2019-01-12T20:31:12.171Z,5.40
2019-01-12T20:33:41.834Z,4.85
2019-01-12T20:36:25.649Z,6.00
2019-01-12T20:38:39.225Z,4.92
2019-01-12T20:41:32.575Z,5.22
2019-01-12T20:44:13.988Z,4.40
2019-01-12T20:47:02.824Z,4.17
2019-01-12T20:49:21.984Z,4.60
2019-01-12T20:52:09.464Z,3.52
2019-01-12T20:54:56.140Z,4.30
2019-01-12T20:57:18.854Z,3.52
2019-01-12T20:59:31.391Z,3.55
2019-01-12T21:02:21.359Z,3.45
2019-01-12T21:04:54.437Z,4.42
2019-01-12T21:07:06.254Z,3.70
2019-01-12T21:10:02.324Z,5.90
2019-01-12T21:13:04.799Z,4.20
2019-01-12T21:15:16.740Z,4.42
2019-01-12T21:17:18.851Z,3.40
2019-01-12T21:19:20.567Z,3.52
2019-01-12T21:21:22.543Z,4.05
2019-01-12T21:23:24.696Z,5.00
2019-01-12T21:25:26.568Z,3.37
2019-01-12T21:27:28.684Z,3.55
2019-01-12T21:29:35.085Z,3.20
2019-01-12T21:31:34.624Z,3.87
2019-01-12T21:33:36.469Z,2.85
2019-01-12T21:35:38.643Z,3.45
2019-01-12T21:37:40.475Z,3.05
2019-01-12T21:39:42.234Z,2.70
2019-01-12T21:41:51.302Z,2.95
2019-01-12T21:43:53.251Z,2.80
2019-01-12T21:45:55.352Z,3.10
2019-01-12T21:47:57.219Z,2.83
2019-01-12T21:49:59.083Z,2.40
2019-01-12T21:52:00.983Z,3.00
2019-01-12T21:54:03.356Z,2.90
2019-01-12T21:56:05.220Z,2.62
2019-01-12T21:58:07.083Z,2.75
2019-01-12T22:00:12.227Z,2.60
2019-01-12T22:02:14.151Z,2.12
2019-01-12T22:04:15.975Z,3.00
2019-01-12T22:06:18.057Z,2.05
2019-01-12T22:08:19.781Z,2.25
2019-01-12T22:10:21.516Z,2.15
2019-01-12T22:12:23.646Z,2.33
2019-01-12T22:14:25.634Z,2.20
2019-01-12T22:16:27.402Z,2.30
2019-01-12T22:18:29.303Z,2.37
2019-01-12T22:20:31.229Z,2.05
2019-01-12T22:22:33.151Z,2.83
2019-01-12T22:24:34.879Z,2.25
2019-01-12T22:26:36.619Z,2.45
2019-01-12T22:28:41.699Z,2.62
2019-01-12T22:30:49.651Z,2.37
2019-01-12T22:32:51.591Z,2.20
2019-01-12T22:35:05.291Z,2.60
2019-01-12T22:37:07.428Z,2.52
2019-01-12T22:39:09.614Z,2.75
2019-01-12T22:41:11.652Z,2.80
2019-01-12T22:43:13.710Z,3.00
2019-01-12T22:45:42.578Z,3.25
2019-01-12T22:47:46.131Z,2.90
2019-01-12T22:49:51.049Z,2.77
2019-01-12T22:51:52.762Z,2.83
2019-01-12T22:53:54.583Z,2.87
2019-01-12T22:55:56.396Z,3.22
2019-01-12T22:57:58.150Z,2.70
2019-01-12T22:59:59.969Z,3.10
2019-01-12T23:02:05.297Z,2.25
2019-01-12T23:04:07.427Z,2.85
2019-01-12T23:06:09.151Z,2.70
2019-01-12T23:08:10.979Z,2.72
2019-01-12T23:10:12.814Z,3.00
2019-01-12T23:12:14.826Z,3.22
2019-01-12T23:14:16.743Z,3.40
2019-01-12T23:16:18.702Z,6.05
2019-01-12T23:18:20.505Z,4.45
2019-01-12T23:20:22.228Z,4.55
2019-01-12T23:22:24.223Z,4.15
2019-01-12T23:24:26.310Z,4.42
2019-01-12T23:26:28.130Z,4.92
2019-01-12T23:28:29.870Z,4.17
2019-01-12T23:30:31.687Z,4.62
2019-01-12T23:32:33.527Z,4.40
2019-01-12T23:34:35.290Z,4.50
2019-01-12T23:36:37.215Z,4.28
2019-01-12T23:38:39.159Z,5.87
2019-01-12T23:40:41.270Z,5.80
2019-01-12T23:42:43.197Z,6.22
2019-01-12T23:44:44.999Z,5.53
2019-01-12T23:46:46.735Z,4.42
2019-01-12T23:48:48.450Z,5.37
2019-01-12T23:50:50.348Z,5.00
2019-01-12T23:52:52.346Z,4.28
2019-01-12T23:54:54.073Z,5.35
2019-01-12T23:56:56.040Z,5.75
2019-01-12T23:58:57.784Z,5.80
